»·PEaware :: FFT180 KPSP-KTUS

FFT180 :: KPSP-KTUS

FLIGHT INFORMATION

Flight Status: Arrived
Operator:
Frontier Airlines
More flights by this operator :: More flights under this callsign
Pilot: Etienne B. (28927)
Aircraft: AIRBUS A320
(A320)
More flights by this aircraft type
Origin: KPSP Palm Springs Intl
United States
Destination: KTUS Tucson Intl
United States
More flights between these airports :: More routes between these airports
Route: +CATH1 PSP BLH HEDVI GBN DINGO5
File this flight plan on PilotEdge
Remarks: RMK / SIMBRIEF
Altitude:
(Current/Filed)
33,000ft
Speed:
(Current/Filed)
447kts
Departed: 22-Apr-20 03:36 PM
Arrived: 22-Apr-20 04:27 PM
Distance/Time
Traveled:
298nm/0:51
Distance/Time
To Go:
Arrived

Flight Plot

Page will automatically refresh every two minutes.

Flight plan parsing failed; only flown route is shown


Map Options




Map Legend


Flown Route
Filed Route
Departure Airport
Arrival Airport
Navaid (VOR, NDB)
Fix

Horizontal Profiles

Position Reports

Time Latitude Longitude Heading Altitude Ground
Speed
22-Apr-20 15:12 33.821238 -116.506673 316 412ft 0kts
22-Apr-20 15:13 33.821238 -116.506673 316 412ft 0kts
22-Apr-20 15:14 33.821238 -116.506673 316 412ft 0kts
22-Apr-20 15:14 33.821238 -116.506673 316 412ft 0kts
22-Apr-20 15:16 33.821238 -116.506673 316 412ft 0kts
22-Apr-20 15:17 33.821238 -116.506673 316 412ft 0kts
22-Apr-20 15:17 33.821238 -116.506673 316 412ft 0kts
22-Apr-20 15:18 33.821238 -116.506673 316 412ft 0kts
22-Apr-20 15:20 33.821238 -116.506673 316 412ft 0kts
22-Apr-20 15:20 33.821238 -116.506673 316 412ft 0kts
22-Apr-20 15:21 33.821238 -116.506673 316 412ft 0kts
22-Apr-20 15:22 33.821238 -116.506673 316 412ft 0kts
22-Apr-20 15:23 33.821238 -116.506673 316 412ft 0kts
22-Apr-20 15:24 33.821238 -116.506673 316 412ft 0kts
22-Apr-20 15:25 33.821170 -116.506583 295 412ft 2kts
22-Apr-20 15:26 33.821361 -116.506007 195 412ft 2kts
22-Apr-20 15:27 33.821469 -116.505989 178 412ft 0kts
22-Apr-20 15:28 33.821285 -116.505997 183 412ft 5kts
22-Apr-20 15:29 33.819818 -116.505935 128 409ft 0kts
22-Apr-20 15:30 33.819668 -116.504810 89 409ft 9kts
22-Apr-20 15:31 33.819240 -116.500414 141 404ft 14kts
22-Apr-20 15:32 33.818444 -116.499174 85 401ft 0kts
22-Apr-20 15:33 33.818444 -116.499174 85 401ft 0kts
22-Apr-20 15:34 33.820100 -116.499135 323 401ft 40kts
22-Apr-20 15:35 33.854596 -116.529674 324 2114ft 197kts
22-Apr-20 15:36 33.900520 -116.556014 25 5114ft 198kts
22-Apr-20 15:37 33.896838 -116.484656 123 7397ft 276kts
22-Apr-20 15:38 33.862701 -116.397694 98 9756ft 305kts
22-Apr-20 15:39 33.844927 -116.294587 95 12103ft 332kts
22-Apr-20 15:40 33.829064 -116.174542 98 13052ft 392kts
22-Apr-20 15:41 33.808406 -116.042001 98 14768ft 411kts
22-Apr-20 15:42 33.786459 -115.905098 98 16531ft 423kts
22-Apr-20 15:43 33.763720 -115.764764 98 18158ft 434kts
22-Apr-20 15:44 33.740192 -115.620703 97 19668ft 445kts
22-Apr-20 15:45 33.715871 -115.472947 97 21072ft 456kts
22-Apr-20 15:46 33.690881 -115.322318 98 22378ft 466kts
22-Apr-20 15:47 33.665120 -115.168273 97 23585ft 475kts
22-Apr-20 15:48 33.638755 -115.011864 97 24755ft 482kts
22-Apr-20 15:49 33.611791 -114.853193 96 25796ft 489kts
22-Apr-20 15:50 33.576103 -114.693858 105 26710ft 503kts
22-Apr-20 15:51 33.528819 -114.535014 105 27676ft 507kts
22-Apr-20 15:52 33.481265 -114.375965 104 28833ft 507kts
22-Apr-20 15:53 33.433863 -114.218309 105 29891ft 507kts
22-Apr-20 15:54 33.386040 -114.060094 105 30972ft 507kts
22-Apr-20 15:55 33.337922 -113.901748 105 31982ft 507kts
22-Apr-20 15:56 33.289486 -113.743191 105 32934ft 507kts
22-Apr-20 15:57 33.241079 -113.585556 105 33003ft 506kts
22-Apr-20 15:58 33.192568 -113.428324 105 32604ft 506kts
22-Apr-20 15:59 33.143771 -113.271126 105 31643ft 505kts
22-Apr-20 16:00 33.094756 -113.113978 106 30699ft 505kts
22-Apr-20 16:01 33.045762 -112.957728 106 29569ft 501kts
22-Apr-20 16:02 32.996384 -112.801008 106 26314ft 514kts
22-Apr-20 16:03 32.944145 -112.642652 110 23989ft 509kts
22-Apr-20 16:04 32.886159 -112.491771 110 22028ft 490kts
22-Apr-20 16:05 32.830281 -112.346962 111 20493ft 476kts
22-Apr-20 16:06 32.775602 -112.205897 111 19019ft 464kts
22-Apr-20 16:07 32.722122 -112.068475 112 17587ft 452kts
22-Apr-20 16:08 32.670094 -111.935314 112 16173ft 440kts
22-Apr-20 16:09 32.619117 -111.805329 112 14791ft 428kts
22-Apr-20 16:10 32.569443 -111.679148 112 13467ft 418kts
22-Apr-20 16:11 32.507859 -111.563803 124 12184ft 413kts
22-Apr-20 16:12 32.428324 -111.467147 135 11434ft 405kts
22-Apr-20 16:13 32.349835 -111.381446 135 9956ft 359kts
22-Apr-20 16:14 32.282923 -111.307721 135 8340ft 304kts
22-Apr-20 16:15 32.224716 -111.242739 135 6756ft 277kts
22-Apr-20 16:16 32.169494 -111.179917 135 5802ft 263kts
22-Apr-20 16:17 32.118699 -111.121078 135 4956ft 251kts
22-Apr-20 16:18 32.069260 -111.063563 135 4720ft 250kts
22-Apr-20 16:19 32.021809 -111.008729 135 4720ft 229kts
22-Apr-20 16:20 31.977571 -110.955024 113 4725ft 226kts
22-Apr-20 16:21 31.979962 -110.897110 38 4716ft 158kts
22-Apr-20 16:22 32.017872 -110.875246 6 4631ft 151kts
22-Apr-20 16:23 32.058863 -110.878024 340 3867ft 148kts
22-Apr-20 16:24 32.089016 -110.907693 315 3081ft 140kts
22-Apr-20 16:25 32.111794 -110.934337 315 2622ft 42kts
22-Apr-20 16:26 32.118352 -110.940943 1 2603ft 0kts
22-Apr-20 16:27 32.118672 -110.940936 0 2602ft 7kts
22-Apr-20 16:28 32.120286 -110.940111 93 2600ft 3kts

Navigation Log

Ident Type
Flight plan parsing failed, navigation log unavailable